Time;durP1;ratioP1;P1;durP2;ratioP2;P2;SDS_P1;SDS_P2;PMS_P1;PMS_P2;Temp;Humidity;BMP_temperature;BMP_pressure;BME280_temperature;BME280_humidity;BME280_pressure;Samples;Min_cycle;Max_cycle;Signal;HPM_P1;HPM_P2
2021/03/24 00:02:01;;;;;;;;;;;;;;;7.95;100.00;99105.94;5092889;28;20028;-84
2021/03/24 00:04:28;;;;;;;;;;;;;;;7.98;100.00;99103.09;5076262;28;19955;-84
2021/03/24 00:06:57;;;;;;;;;;;;;;;7.97;100.00;99095.97;5075761;28;19924;-84
2021/03/24 00:09:24;;;;;;;;;;;;;;;7.93;100.00;99103.53;5094269;28;19931;-84
2021/03/24 00:11:51;;;;;;;;;;;;;;;7.90;100.00;99096.00;5093616;28;19931;-84
2021/03/24 00:14:17;;;;;;;;;;;;;;;7.87;100.00;99102.38;5092808;28;19924;-84
2021/03/24 00:16:44;;;;;;;;;;;;;;;7.86;100.00;99095.22;5075824;28;20306;-84
2021/03/24 00:19:11;;;;;;;;;;;;;;;7.87;100.00;99094.03;5093750;28;19931;-84
2021/03/24 00:21:37;;;;;;;;;;;;;;;7.87;100.00;99087.69;5092534;28;20405;-85
2021/03/24 00:24:05;;;;;;;;;;;;;;;7.87;100.00;99080.13;5109533;28;20016;-85
2021/03/24 00:26:32;;;;;;;;;;;;;;;7.82;100.00;99079.75;5075966;28;19924;-85
2021/03/24 00:29:11;;;;;;;;;;;;;;;7.78;100.00;99079.78;5074845;28;19950;-84
2021/03/24 00:31:38;;;;;;;;;;;;;;;7.79;100.00;99080.56;5093582;28;19931;-84
2021/03/24 00:34:04;;;;;;;;;;;;;;;7.81;100.00;99084.53;5075503;28;20640;-84
2021/03/24 00:36:38;;;;;;;;;;;;;;;7.84;100.00;99066.22;5072434;28;20280;-84
2021/03/24 00:39:05;;;;;;;;;;;;;;;7.82;100.00;99072.19;5086131;28;19935;-85
2021/03/24 00:41:31;;;;;;;;;;;;;;;7.80;100.00;99079.38;5092240;28;19924;-84
2021/03/24 00:43:58;;;;;;;;;;;;;;;7.81;100.00;99070.63;5075430;28;20352;-84
2021/03/24 00:46:25;;;;;;;;;;;;;;;7.80;100.00;99069.03;5092376;28;20066;-84
2021/03/24 00:48:52;;;;;;;;;;;;;;;7.85;100.00;99076.94;5093663;28;19928;-84
2021/03/24 00:51:18;;;;;;;;;;;;;;;7.79;100.00;99081.34;5109108;28;19943;-84
2021/03/24 00:53:45;;;;;;;;;;;;;;;7.78;100.00;99065.88;5092194;28;19935;-84
2021/03/24 00:56:12;;;;;;;;;;;;;;;7.73;100.00;99074.63;5079006;28;19924;-84
2021/03/24 00:58:38;;;;;;;;;;;;;;;7.72;100.00;99073.06;5092241;28;19950;-85
2021/03/24 01:01:05;;;;;;;;;;;;;;;7.70;100.00;99069.06;5092390;28;19971;-84
2021/03/24 01:03:31;;;;;;;;;;;;;;;7.70;100.00;99078.22;5074369;28;19924;-85
2021/03/24 01:05:58;;;;;;;;;;;;;;;7.66;100.00;99069.09;5079194;28;20026;-85
2021/03/24 01:08:25;;;;;;;;;;;;;;;7.64;100.00;99071.50;5095976;28;19967;-85
2021/03/24 01:10:54;;;;;;;;;;;;;;;7.65;100.00;99067.50;5068883;28;19978;-84
2021/03/24 01:13:21;;;;;;;;;;;;;;;7.60;100.00;99067.13;5061269;28;19924;-84
2021/03/24 01:15:49;;;;;;;;;;;;;;;7.60;100.00;99070.72;5095879;28;19931;-85
2021/03/24 01:18:16;;;;;;;;;;;;;;;7.59;100.00;99074.69;5095914;28;19993;-84
2021/03/24 01:20:43;;;;;;;;;;;;;;;7.57;100.00;99065.97;5075591;28;20311;-84
2021/03/24 01:23:10;;;;;;;;;;;;;;;7.52;100.00;99063.59;5089191;28;19924;-84
2021/03/24 01:25:37;;;;;;;;;;;;;;;7.53;100.00;99054.06;5076491;28;19925;-84
2021/03/24 01:28:06;;;;;;;;;;;;;;;7.51;100.00;99067.59;5095606;28;20034;-84
2021/03/24 01:30:33;;;;;;;;;;;;;;;7.57;100.00;99056.81;5081645;28;19973;-84
2021/03/24 01:33:00;;;;;;;;;;;;;;;7.59;100.00;99074.69;5082766;28;19931;-85
2021/03/24 01:35:27;;;;;;;;;;;;;;;7.64;100.00;99082.63;5078732;28;19924;-84
2021/03/24 01:37:53;;;;;;;;;;;;;;;7.65;100.00;99077.84;5095346;28;19924;-85
2021/03/24 01:40:26;;;;;;;;;;;;;;;7.69;100.00;99079.41;5095328;28;19924;-84
2021/03/24 01:42:55;;;;;;;;;;;;;;;7.65;100.00;99070.28;5078545;28;19924;-85
2021/03/24 01:45:22;;;;;;;;;;;;;;;7.67;100.00;99070.69;5095377;28;19931;-85
2021/03/24 01:48:11;;;;;;;;;;;;;;;7.73;100.00;99071.84;5080815;28;19931;-85
2021/03/24 01:50:39;;;;;;;;;;;;;;;7.74;100.00;99076.19;5095579;28;19924;-85
2021/03/24 01:53:15;;;;;;;;;;;;;;;7.80;100.00;99074.59;5094993;28;19930;-85
2021/03/24 01:55:42;;;;;;;;;;;;;;;7.82;100.00;99066.63;5061855;28;19924;-85
2021/03/24 01:58:15;;;;;;;;;;;;;;;7.83;100.00;99061.88;5111155;28;20023;-85
2021/03/24 02:00:47;;;;;;;;;;;;;;;7.84;100.00;99055.91;5095044;28;19924;-85
2021/03/24 02:03:14;;;;;;;;;;;;;;;7.89;100.00;99049.91;5095002;28;19928;-85
2021/03/24 02:05:42;;;;;;;;;;;;;;;7.89;100.00;99054.69;5094905;28;19924;-85
2021/03/24 02:08:09;;;;;;;;;;;;;;;7.91;100.00;99055.06;5094510;28;19977;-85
2021/03/24 02:10:56;;;;;;;;;;;;;;;7.89;100.00;99055.47;5078137;28;19928;-85
2021/03/24 02:13:35;;;;;;;;;;;;;;;7.95;100.00;99053.84;5080864;28;19931;-84
2021/03/24 02:16:03;;;;;;;;;;;;;;;7.96;100.00;99049.88;5061398;28;19924;-85
2021/03/24 02:18:32;;;;;;;;;;;;;;;7.95;100.00;99044.72;5095861;28;20015;-85
2021/03/24 02:21:06;;;;;;;;;;;;;;;8.02;100.00;99039.91;5077707;28;19931;-85
2021/03/24 02:23:38;;;;;;;;;;;;;;;8.02;100.00;99042.69;5077152;28;20295;-85
2021/03/24 02:26:25;;;;;;;;;;;;;;;8.06;100.00;99039.84;5095652;28;20460;-86
2021/03/24 02:28:53;;;;;;;;;;;;;;;8.02;100.00;99039.91;5111652;28;20061;-85
2021/03/24 02:31:23;;;;;;;;;;;;;;;7.97;100.00;99043.09;5064502;28;20325;-85
2021/03/24 02:33:53;;;;;;;;;;;;;;;8.04;100.00;99034.69;5084291;28;20355;-86
2021/03/24 02:36:20;;;;;;;;;;;;;;;8.03;100.00;99030.34;5073817;28;19932;-85
2021/03/24 02:38:48;;;;;;;;;;;;;;;8.07;100.00;99050.59;5090800;28;19969;-85
2021/03/24 02:41:16;;;;;;;;;;;;;;;8.08;100.00;99034.69;5076738;28;20022;-85
2021/03/24 02:43:44;;;;;;;;;;;;;;;8.09;100.00;99031.50;5074805;28;19924;-85
2021/03/24 02:46:13;;;;;;;;;;;;;;;8.11;100.00;99029.09;5072862;28;19924;-85
2021/03/24 02:48:41;;;;;;;;;;;;;;;8.09;100.00;99025.16;5059167;28;19924;-86
2021/03/24 02:51:10;;;;;;;;;;;;;;;8.08;100.00;99018.78;5092499;28;19924;-85
2021/03/24 02:53:39;;;;;;;;;;;;;;;8.10;100.00;99016.41;5074747;28;19928;-85
2021/03/24 02:56:07;;;;;;;;;;;;;;;8.10;100.00;99021.16;5070054;28;19931;-86
2021/03/24 02:58:34;;;;;;;;;;;;;;;8.10;100.00;99032.31;5093878;28;19924;-86
2021/03/24 03:01:04;;;;;;;;;;;;;;;8.09;100.00;99011.25;5072400;28;19924;-85
2021/03/24 03:03:39;;;;;;;;;;;;;;;8.13;100.00;99015.59;5075453;28;19925;-85
2021/03/24 03:06:08;;;;;;;;;;;;;;;8.14;100.00;99008.81;5075421;28;19932;-86
2021/03/24 03:08:37;;;;;;;;;;;;;;;8.16;100.00;99016.75;5059003;28;19989;-86
2021/03/24 03:11:09;;;;;;;;;;;;;;;8.16;100.00;99014.75;5075621;28;19924;-86
2021/03/24 03:13:42;;;;;;;;;;;;;;;8.18;100.00;99017.13;5085320;28;19928;-85
2021/03/24 03:16:11;;;;;;;;;;;;;;;8.20;100.00;99012.75;5092171;28;19978;-85
2021/03/24 03:18:49;;;;;;;;;;;;;;;8.13;100.00;99010.03;5090578;28;19924;-85
2021/03/24 03:21:18;;;;;;;;;;;;;;;8.14;100.00;99014.38;5063153;28;19925;-85
2021/03/24 03:23:45;;;;;;;;;;;;;;;8.12;100.00;99019.53;5092242;28;19924;-86
2021/03/24 03:26:13;;;;;;;;;;;;;;;8.19;100.00;99013.16;5093129;28;19931;-85
2021/03/24 03:28:41;;;;;;;;;;;;;;;8.17;100.00;99010.78;5092082;28;19925;-86
2021/03/24 03:31:11;;;;;;;;;;;;;;;8.12;100.00;99008.41;5092041;28;19935;-86
2021/03/24 03:33:39;;;;;;;;;;;;;;;8.12;100.00;99011.19;5108897;28;19935;-86
2021/03/24 03:36:07;;;;;;;;;;;;;;;8.13;100.00;99012.81;5074932;28;20012;-85
2021/03/24 03:38:34;;;;;;;;;;;;;;;8.08;100.00;99012.44;5091754;28;19931;-86
2021/03/24 03:41:03;;;;;;;;;;;;;;;8.10;100.00;99010.03;5075227;28;19924;-85
2021/03/24 03:43:31;;;;;;;;;;;;;;;8.05;100.00;99008.47;5091626;28;19924;-85
2021/03/24 03:46:00;;;;;;;;;;;;;;;7.99;100.00;99004.53;5071705;28;19924;-86
2021/03/24 03:48:27;;;;;;;;;;;;;;;7.98;100.00;99007.72;5070734;28;19928;-86
2021/03/24 03:50:56;;;;;;;;;;;;;;;7.92;100.00;99004.56;5091581;28;19928;-85
2021/03/24 03:53:42;;;;;;;;;;;;;;;7.96;100.00;99012.91;5054875;28;20311;-85
2021/03/24 03:56:14;;;;;;;;;;;;;;;7.92;100.00;99004.56;5080296;28;19924;-86
2021/03/24 03:58:41;;;;;;;;;;;;;;;7.93;100.00;99003.41;5091835;28;20022;-86
2021/03/24 04:01:14;;;;;;;;;;;;;;;7.89;100.00;99004.63;5054751;28;19928;-86
2021/03/24 04:03:44;;;;;;;;;;;;;;;7.89;100.00;99004.63;5069127;28;19974;-86
2021/03/24 04:06:15;;;;;;;;;;;;;;;7.88;100.00;99008.56;5074933;28;19931;-85
2021/03/24 04:08:42;;;;;;;;;;;;;;;7.91;100.00;99016.09;5058555;28;19931;-86
2021/03/24 04:11:09;;;;;;;;;;;;;;;7.93;100.00;99011.75;5074184;28;19932;-85
2021/03/24 04:13:40;;;;;;;;;;;;;;;7.91;100.00;99018.88;5066880;28;19925;-85
2021/03/24 04:16:07;;;;;;;;;;;;;;;7.89;100.00;99015.75;5091655;28;20374;-86
2021/03/24 04:18:38;;;;;;;;;;;;;;;7.89;100.00;99015.75;5091112;28;20026;-86
2021/03/24 04:21:07;;;;;;;;;;;;;;;7.83;100.00;99023.69;5074470;28;20432;-85
2021/03/24 04:23:39;;;;;;;;;;;;;;;7.77;100.00;99025.31;5108361;28;20379;-86
2021/03/24 04:26:06;;;;;;;;;;;;;;;7.72;100.00;99031.34;5073251;28;19959;-86
2021/03/24 04:28:37;;;;;;;;;;;;;;;7.61;100.00;99027.81;5091400;28;20009;-85
2021/03/24 04:31:09;;;;;;;;;;;;;;;7.57;100.00;99029.03;5072437;28;19932;-86
2021/03/24 04:33:36;;;;;;;;;;;;;;;7.54;100.00;99038.97;5091115;28;20015;-86
2021/03/24 04:36:14;;;;;;;;;;;;;;;7.51;100.00;99044.53;5092449;28;19945;-85
2021/03/24 04:38:43;;;;;;;;;;;;;;;7.52;100.00;99051.69;5091668;28;19946;-86
2021/03/24 04:41:12;;;;;;;;;;;;;;;7.45;100.00;99052.50;5096460;28;20012;-85
2021/03/24 04:43:41;;;;;;;;;;;;;;;7.41;100.00;99050.94;5095250;28;20440;-85
2021/03/24 04:46:16;;;;;;;;;;;;;;;7.38;100.00;99060.09;5095506;28;19924;-85
2021/03/24 04:48:49;;;;;;;;;;;;;;;7.33;100.00;99066.81;5078306;28;19980;-85
2021/03/24 04:51:27;;;;;;;;;;;;;;;7.25;100.00;99068.06;5095292;28;19990;-85
2021/03/24 04:53:58;;;;;;;;;;;;;;;7.12;100.00;99069.66;5065535;28;19930;-86
2021/03/24 04:56:25;;;;;;;;;;;;;;;7.07;100.00;99067.31;5095230;28;19931;-85
2021/03/24 04:58:53;;;;;;;;;;;;;;;7.03;100.00;99086.75;5095074;28;19931;-85
2021/03/24 05:01:26;;;;;;;;;;;;;;;6.98;100.00;99086.38;5099364;28;19925;-85
2021/03/24 05:03:54;;;;;;;;;;;;;;;6.97;100.00;99107.78;5073853;28;19931;-85
2021/03/24 05:06:21;;;;;;;;;;;;;;;7.00;100.00;99108.97;5086311;28;19946;-85
2021/03/24 05:08:48;;;;;;;;;;;;;;;6.93;100.00;99112.56;5074773;28;20338;-85
2021/03/24 05:11:17;;;;;;;;;;;;;;;6.89;100.00;99125.66;5084631;28;20509;-85
2021/03/24 05:13:57;;;;;;;;;;;;;;;6.70;100.00;99123.28;5076733;28;19931;-85
2021/03/24 05:16:27;;;;;;;;;;;;;;;6.68;100.00;99130.44;5094542;28;19925;-85
2021/03/24 05:18:56;;;;;;;;;;;;;;;6.57;100.00;99129.63;5094739;28;20005;-85
2021/03/24 05:21:43;;;;;;;;;;;;;;;6.54;100.00;99131.19;5077721;28;20419;-85
2021/03/24 05:24:13;;;;;;;;;;;;;;;6.55;100.00;99148.66;5077504;28;20008;-85
2021/03/24 05:26:42;;;;;;;;;;;;;;;6.59;100.00;99144.69;5074232;28;20018;-85
2021/03/24 05:29:29;;;;;;;;;;;;;;;6.51;100.00;99143.09;5057755;28;19928;-86
2021/03/24 05:31:57;;;;;;;;;;;;;;;6.49;100.00;99144.69;5094304;28;19925;-86
2021/03/24 05:34:33;;;;;;;;;;;;;;;6.48;100.00;99149.44;5077701;28;20337;-86
2021/03/24 05:37:00;;;;;;;;;;;;;;;6.45;100.00;99160.53;5077499;28;20295;-86
2021/03/24 05:39:32;;;;;;;;;;;;;;;6.43;100.00;99162.91;5093000;28;19924;-86
2021/03/24 05:42:11;;;;;;;;;;;;;;;6.45;100.00;99168.88;5079740;28;19978;-86
2021/03/24 05:44:48;;;;;;;;;;;;;;;6.40;100.00;99169.25;5078473;28;19931;-86
2021/03/24 05:47:24;;;;;;;;;;;;;;;6.24;100.00;99171.59;5076344;28;20349;-86
2021/03/24 05:49:54;;;;;;;;;;;;;;;6.28;100.00;99177.94;5075475;28;19930;-86
2021/03/24 05:52:39;;;;;;;;;;;;;;;6.29;100.00;99182.28;5092877;28;19924;-86
2021/03/24 05:55:15;;;;;;;;;;;;;;;6.36;100.00;99190.66;5075942;28;19935;-86
2021/03/24 05:57:42;;;;;;;;;;;;;;;6.32;100.00;99200.94;5093122;28;19928;-86
2021/03/24 06:00:23;;;;;;;;;;;;;;;6.29;100.00;99208.06;5092209;28;20412;-86
2021/03/24 06:02:53;;;;;;;;;;;;;;;6.36;100.00;99212.84;5072622;28;20076;-86
2021/03/24 06:05:29;;;;;;;;;;;;;;;6.27;100.00;99217.97;5089767;28;19959;-86
2021/03/24 06:08:07;;;;;;;;;;;;;;;6.30;100.00;99219.97;5075838;28;19928;-86
2021/03/24 06:10:44;;;;;;;;;;;;;;;6.30;100.00;99231.06;5092722;28;20015;-86
2021/03/24 06:13:17;;;;;;;;;;;;;;;6.27;100.00;99237.41;5072325;28;19951;-86
2021/03/24 06:15:52;;;;;;;;;;;;;;;6.29;100.00;99240.56;5090946;28;19930;-86
2021/03/24 06:18:31;;;;;;;;;;;;;;;6.31;100.00;99240.97;5075646;28;19953;-85
2021/03/24 06:21:02;;;;;;;;;;;;;;;6.29;100.00;99246.91;5093383;28;20307;-85
2021/03/24 06:23:48;;;;;;;;;;;;;;;6.32;100.00;99251.69;5091719;28;19935;-86
2021/03/24 06:26:34;;;;;;;;;;;;;;;6.28;100.00;99250.09;5075690;28;19924;-85
2021/03/24 06:29:07;;;;;;;;;;;;;;;6.32;100.00;99248.09;5092089;28;19924;-86
2021/03/24 06:31:52;;;;;;;;;;;;;;;6.33;100.00;99255.28;5055448;28;19977;-86
2021/03/24 06:34:31;;;;;;;;;;;;;;;6.34;100.00;99259.63;5087003;28;19936;-86
2021/03/24 06:40:02;;;;;;;;;;;;;;;6.39;100.00;99256.47;5079076;27;1527746;-86
2021/03/24 06:42:49;;;;;;;;;;;;;;;6.40;100.00;99263.59;5100997;28;19924;-87
2021/03/24 06:45:27;;;;;;;;;;;;;;;6.46;100.00;99262.03;5101430;27;20267;-84
2021/03/24 06:47:58;;;;;;;;;;;;;;;6.50;100.00;99265.63;5085236;28;20387;-85
2021/03/24 06:50:31;;;;;;;;;;;;;;;6.59;100.00;99271.59;5088178;28;20268;-83
2021/03/24 06:53:05;;;;;;;;;;;;;;;6.51;100.00;99278.34;5123698;27;20028;-79
2021/03/24 06:55:51;;;;;;;;;;;;;;;6.51;100.00;99287.44;5128631;27;19923;-85
2021/03/24 06:58:21;;;;;;;;;;;;;;;6.51;100.00;99292.22;5135556;27;19977;-84
2021/03/24 07:01:06;;;;;;;;;;;;;;;6.58;100.00;99293.03;5134760;27;19924;-83
2021/03/24 07:03:51;;;;;;;;;;;;;;;6.63;100.00;99298.22;5107153;27;19927;-84
2021/03/24 07:06:27;;;;;;;;;;;;;;;6.60;100.00;99300.97;5102686;27;19924;-83
2021/03/24 07:09:03;;;;;;;;;;;;;;;6.61;100.00;99306.13;5090901;28;19923;-84
2021/03/24 07:11:38;;;;;;;;;;;;;;;6.54;100.00;99308.84;5074118;28;19923;-84
2021/03/24 07:14:11;;;;;;;;;;;;;;;6.61;100.00;99319.22;5092815;28;20450;-83
2021/03/24 07:16:48;;;;;;;;;;;;;;;6.64;100.00;99324.78;5085542;27;19946;-84
2021/03/24 07:19:26;;;;;;;;;;;;;;;6.63;100.00;99334.31;5121961;27;20651;-84
2021/03/24 07:22:02;;;;;;;;;;;;;;;6.68;100.00;99333.91;5089519;27;19936;-82
2021/03/24 07:24:46;;;;;;;;;;;;;;;6.81;100.00;99343.50;5093966;27;20359;-83
2021/03/24 07:27:41;;;;;;;;;;;;;;;6.82;100.00;99344.28;5092405;27;20262;-82
2021/03/24 07:30:22;;;;;;;;;;;;;;;6.81;100.00;99346.28;5109815;28;19924;-83
2021/03/24 07:32:54;;;;;;;;;;;;;;;6.93;100.00;99345.09;5110561;28;19951;-83
2021/03/24 07:35:27;;;;;;;;;;;;;;;7.08;100.00;99349.50;5093718;28;19931;-83
2021/03/24 07:38:19;;;;;;;;;;;;;;;7.24;100.00;99358.28;5110727;28;19931;-86
2021/03/24 07:41:05;;;;;;;;;;;;;;;7.38;100.00;99347.19;5087365;27;20435;-82
2021/03/24 07:43:40;;;;;;;;;;;;;;;7.38;100.00;99349.97;5110849;27;20003;-82
2021/03/24 07:46:19;;;;;;;;;;;;;;;7.44;100.00;99351.16;5124772;27;19923;-82
2021/03/24 07:49:01;;;;;;;;;;;;;;;7.51;100.00;99351.19;5129696;27;19946;-82
2021/03/24 07:51:46;;;;;;;;;;;;;;;7.62;100.00;99351.97;5129811;27;20323;-82
2021/03/24 07:54:32;;;;;;;;;;;;;;;7.62;100.00;99348.41;5125312;27;19923;-81
2021/03/24 07:57:05;;;;;;;;;;;;;;;7.67;100.00;99350.78;5117451;27;19923;-81
2021/03/24 07:59:35;;;;;;;;;;;;;;;7.84;100.00;99359.13;5109199;27;19930;-82
2021/03/24 08:02:14;;;;;;;;;;;;;;;7.84;100.00;99348.00;5096943;28;19971;-81
2021/03/24 08:04:53;;;;;;;;;;;;;;;7.83;100.00;99346.38;5097402;28;20030;-81
2021/03/24 08:07:26;;;;;;;;;;;;;;;7.91;100.00;99338.84;5094730;28;19931;-82
2021/03/24 08:09:52;;;;;;;;;;;;;;;8.07;100.00;99340.03;5100849;27;20072;-81
2021/03/24 08:12:19;;;;;;;;;;;;;;;8.52;100.00;99349.47;5136119;27;19931;-82
2021/03/24 08:15:04;;;;;;;;;;;;;;;9.00;100.00;99359.63;5097200;28;19973;-82
2021/03/24 08:17:49;;;;;;;;;;;;;;;9.25;100.00;99339.97;5097305;28;20018;-82
2021/03/24 08:20:24;;;;;;;;;;;;;;;9.45;100.00;99327.06;5111462;28;19931;-82
2021/03/24 08:22:58;;;;;;;;;;;;;;;9.51;100.00;99316.28;5097302;28;19924;-82
2021/03/24 08:25:48;;;;;;;;;;;;;;;9.32;100.00;99291.72;5079738;28;20042;-84
2021/03/24 08:28:18;;;;;;;;;;;;;;;9.25;100.00;99288.97;5080964;28;20399;-82
2021/03/24 08:30:55;;;;;;;;;;;;;;;8.84;100.00;99278.50;5046920;28;20383;-83
2021/03/24 08:33:43;;;;;;;;;;;;;;;8.60;100.00;99262.69;5096978;28;20406;-83
2021/03/24 08:36:19;;;;;;;;;;;;;;;8.37;100.00;99256.84;5115044;28;19930;-82
2021/03/24 08:39:04;;;;;;;;;;;;;;;8.01;100.00;99240.66;5128922;27;20408;-83
2021/03/24 08:41:35;;;;;;;;;;;;;;;8.06;100.00;99243.81;5096656;28;19928;-84
2021/03/24 08:44:02;;;;;;;;;;;;;;;8.11;100.00;99232.25;5096608;28;19924;-85
2021/03/24 08:46:32;;;;;;;;;;;;;;;8.23;100.00;99217.13;5085847;28;19973;-84
2021/03/24 08:49:11;;;;;;;;;;;;;;;8.16;100.00;99226.28;5083798;28;19973;-84
2021/03/24 08:51:53;;;;;;;;;;;;;;;8.31;100.00;99210.34;5069472;28;19924;-84
2021/03/24 08:54:21;;;;;;;;;;;;;;;8.57;100.00;99218.94;5046356;28;19927;-85
2021/03/24 08:56:55;;;;;;;;;;;;;;;8.80;100.00;99212.84;5116735;27;19924;-85
2021/03/24 08:59:21;;;;;;;;;;;;;;;8.96;100.00;99219.50;5119493;27;19967;-85
2021/03/24 09:02:06;;;;;;;;;;;;;;;9.29;100.00;99212.47;5081354;28;19973;-84
2021/03/24 09:04:52;;;;;;;;;;;;;;;9.52;100.00;99207.09;5128152;27;19930;-86
2021/03/24 09:07:27;;;;;;;;;;;;;;;9.80;100.00;99192.06;5068155;28;19924;-87
2021/03/24 09:09:54;;;;;;;;;;;;;;;9.69;100.00;99183.00;5080152;28;19924;-85
2021/03/24 09:12:27;;;;;;;;;;;;;;;9.39;100.00;99180.91;5104551;27;19923;-84
2021/03/24 09:15:08;;;;;;;;;;;;;;;8.99;100.00;99178.88;5121604;27;19923;-84
2021/03/24 09:17:34;;;;;;;;;;;;;;;9.37;100.00;99179.75;5080306;28;19934;-87
2021/03/24 09:20:01;;;;;;;;;;;;;;;9.36;100.00;99176.16;5079629;28;19924;-83
2021/03/24 09:22:38;;;;;;;;;;;;;;;9.25;100.00;99169.91;5105954;28;20006;-86
2021/03/24 09:25:14;;;;;;;;;;;;;;;9.09;100.00;99167.63;5096253;28;20628;-86
2021/03/24 09:27:46;;;;;;;;;;;;;;;9.13;100.00;99162.81;5116278;27;19927;-87
2021/03/24 09:30:30;;;;;;;;;;;;;;;9.09;100.00;99155.69;5090390;28;19978;-88
2021/03/24 09:33:17;;;;;;;;;;;;;;;9.30;100.00;99160.28;5100645;27;20018;-88
2021/03/24 09:36:03;;;;;;;;;;;;;;;8.83;100.00;99145.19;5069167;27;19923;-90
2021/03/24 09:38:35;;;;;;;;;;;;;;;8.72;100.00;99136.88;5061013;28;20064;-81
2021/03/24 09:41:17;;;;;;;;;;;;;;;8.92;100.00;99142.72;5099226;28;19935;-83
2021/03/24 09:43:45;;;;;;;;;;;;;;;8.51;100.00;99137.03;5083065;28;19924;-83
2021/03/24 09:46:15;;;;;;;;;;;;;;;8.44;100.00;99142.66;5090870;27;19928;-82
2021/03/24 09:48:46;;;;;;;;;;;;;;;8.48;100.00;99143.41;5086837;28;19928;-83
2021/03/24 09:51:15;;;;;;;;;;;;;;;8.51;100.00;99134.25;5061559;28;20013;-83
2021/03/24 09:53:42;;;;;;;;;;;;;;;8.75;100.00;99141.63;5099072;28;19928;-83
2021/03/24 09:56:09;;;;;;;;;;;;;;;8.55;100.00;99137.81;5098601;28;19931;-83
2021/03/24 09:58:42;;;;;;;;;;;;;;;8.64;100.00;99135.34;5097906;27;20037;-82
2021/03/24 10:01:11;;;;;;;;;;;;;;;8.48;100.00;99125.94;5086710;27;20063;-82
2021/03/24 10:03:38;;;;;;;;;;;;;;;8.50;100.00;99129.88;5082904;27;19930;-82
2021/03/24 10:06:06;;;;;;;;;;;;;;;8.77;100.00;99144.81;5092377;28;19928;-81
2021/03/24 10:08:39;;;;;;;;;;;;;;;8.92;100.00;99140.69;5093233;28;20562;-85
2021/03/24 10:11:09;;;;;;;;;;;;;;;9.11;100.00;99142.94;5076796;28;20057;-82
2021/03/24 10:13:44;;;;;;;;;;;;;;;9.35;100.00;99137.53;5090725;28;19928;-84
2021/03/24 10:16:10;;;;;;;;;;;;;;;9.29;100.00;99141.97;5076978;28;20004;-85
2021/03/24 10:19:06;;;;;;;;;;;;;;;9.36;100.00;99136.34;5097852;27;20015;-84
2021/03/24 10:21:38;;;;;;;;;;;;;;;9.27;100.00;99128.44;5098567;28;19988;-84
2021/03/24 10:24:12;;;;;;;;;;;;;;;9.34;100.00;99144.31;5099872;28;20379;-84
2021/03/24 10:26:58;;;;;;;;;;;;;;;9.48;100.00;99131.00;5074620;28;19923;-85
2021/03/24 10:29:51;;;;;;;;;;;;;;;9.34;100.00;99122.81;5108506;28;19935;-87
2021/03/24 10:32:27;;;;;;;;;;;;;;;9.26;100.00;99128.84;5062434;27;20384;-87
2021/03/24 10:35:01;;;;;;;;;;;;;;;9.08;100.00;99129.03;5095692;28;20390;-86
2021/03/24 10:37:46;;;;;;;;;;;;;;;8.82;100.00;99133.22;5079652;28;19931;-86
2021/03/24 10:40:16;;;;;;;;;;;;;;;8.78;100.00;99140.03;5083485;28;19986;-85
2021/03/24 10:43:03;;;;;;;;;;;;;;;8.76;100.00;99132.09;5096190;28;20006;-81
2021/03/24 10:45:31;;;;;;;;;;;;;;;8.86;100.00;99141.56;5103767;28;20382;-81
2021/03/24 10:48:04;;;;;;;;;;;;;;;8.92;100.00;99135.13;5098251;28;20022;-84
2021/03/24 10:50:49;;;;;;;;;;;;;;;9.01;100.00;99129.88;5087731;28;20454;-83
2021/03/24 10:53:22;;;;;;;;;;;;;;;9.22;100.00;99125.31;5093797;28;19974;-88
2021/03/24 10:56:01;;;;;;;;;;;;;;;9.22;100.00;99122.53;5071125;28;20422;-83
2021/03/24 10:59:00;;;;;;;;;;;;;;;9.45;100.00;99122.69;5048269;28;20012;-82
2021/03/24 11:01:27;;;;;;;;;;;;;;;9.41;100.00;99127.50;5068636;28;20065;-81
2021/03/24 11:04:21;;;;;;;;;;;;;;;9.65;100.00;99118.09;5094246;28;19928;-80
2021/03/24 11:06:48;;;;;;;;;;;;;;;9.97;100.00;99107.31;5091970;28;20010;-81
2021/03/24 11:09:18;;;;;;;;;;;;;;;9.90;100.00;99105.44;5116699;28;19928;-81
2021/03/24 11:11:55;;;;;;;;;;;;;;;10.10;100.00;99109.16;5126311;28;20175;-81
2021/03/24 11:14:23;;;;;;;;;;;;;;;10.17;100.00;99106.28;5130583;28;19924;-81
2021/03/24 11:16:58;;;;;;;;;;;;;;;9.97;100.00;99112.91;5108600;28;19923;-81
2021/03/24 11:19:30;;;;;;;;;;;;;;;9.81;100.00;99118.28;5105984;28;19931;-81
2021/03/24 11:22:12;;;;;;;;;;;;;;;10.03;100.00;99103.66;5099195;28;19928;-81
2021/03/24 11:24:46;;;;;;;;;;;;;;;10.33;100.00;99102.88;5120769;27;19931;-81
2021/03/24 11:27:22;;;;;;;;;;;;;;;10.40;100.00;99111.16;5118362;27;20409;-81
2021/03/24 11:30:04;;;;;;;;;;;;;;;10.44;100.00;99100.72;5098880;28;19930;-81
2021/03/24 11:32:49;;;;;;;;;;;;;;;10.44;100.00;99100.72;5101459;28;19931;-81
2021/03/24 11:35:36;;;;;;;;;;;;;;;10.46;100.00;99103.88;5116758;28;19927;-81
2021/03/24 11:38:21;;;;;;;;;;;;;;;10.15;100.00;99116.28;5091049;28;19996;-81
2021/03/24 11:40:57;;;;;;;;;;;;;;;10.10;100.00;99106.38;5116116;28;19923;-80
2021/03/24 11:43:29;;;;;;;;;;;;;;;9.94;100.00;99113.72;5124227;27;19968;-81
2021/03/24 11:46:15;;;;;;;;;;;;;;;9.93;100.00;99109.38;5128163;27;20287;-80
2021/03/24 11:48:44;;;;;;;;;;;;;;;10.02;100.00;99107.66;5123529;27;20019;-81
2021/03/24 11:51:29;;;;;;;;;;;;;;;10.30;100.00;99100.94;5131013;27;19931;-81
2021/03/24 11:54:11;;;;;;;;;;;;;;;10.61;100.00;99103.25;5119134;27;19924;-81
2021/03/24 11:56:37;;;;;;;;;;;;;;;10.74;100.00;99100.63;5119558;27;19924;-81
2021/03/24 11:59:23;;;;;;;;;;;;;;;10.46;100.00;99098.28;5081507;28;19931;-81
2021/03/24 12:02:00;;;;;;;;;;;;;;;10.37;100.00;99084.88;5098729;28;19931;-81
2021/03/24 12:04:30;;;;;;;;;;;;;;;10.51;100.00;99095.81;5117095;28;19924;-82
2021/03/24 12:07:23;;;;;;;;;;;;;;;10.65;100.00;99100.38;5097147;28;19923;-79
2021/03/24 12:09:59;;;;;;;;;;;;;;;10.47;100.00;99099.88;5099119;27;19931;-77
2021/03/24 12:12:26;;;;;;;;;;;;;;;10.11;100.00;99088.44;5108013;27;20003;-78
2021/03/24 12:15:16;;;;;;;;;;;;;;;10.10;100.00;99086.81;5108172;27;20374;-78
2021/03/24 12:17:44;;;;;;;;;;;;;;;10.19;100.00;99084.31;5101664;28;19923;-78
2021/03/24 12:20:12;;;;;;;;;;;;;;;10.14;100.00;99097.94;5123654;27;19923;-80
2021/03/24 12:22:47;;;;;;;;;;;;;;;10.20;100.00;99085.91;5115485;28;19923;-81
2021/03/24 12:25:21;;;;;;;;;;;;;;;10.11;100.00;99076.47;5115523;28;19930;-80
2021/03/24 12:27:50;;;;;;;;;;;;;;;9.91;100.00;99073.50;5097920;28;19977;-80
2021/03/24 12:30:40;;;;;;;;;;;;;;;9.78;100.00;99085.66;5125574;27;20289;-81
2021/03/24 12:33:11;;;;;;;;;;;;;;;9.81;100.00;99070.84;5116753;27;20419;-80
2021/03/24 12:35:38;;;;;;;;;;;;;;;9.98;100.00;99067.03;5119422;27;20555;-81
2021/03/24 12:38:09;;;;;;;;;;;;;;;10.12;100.00;99069.66;5121165;27;19937;-82
2021/03/24 12:40:48;;;;;;;;;;;;;;;10.11;100.00;99056.91;5114543;28;20336;-82
2021/03/24 12:43:20;;;;;;;;;;;;;;;10.23;100.00;99061.91;5101925;28;19976;-82
2021/03/24 12:45:47;;;;;;;;;;;;;;;10.46;100.00;99081.53;5114306;28;19924;-82
2021/03/24 12:48:14;;;;;;;;;;;;;;;10.67;100.00;99082.00;5101860;28;19946;-82
2021/03/24 12:50:46;;;;;;;;;;;;;;;10.06;100.00;99074.09;5102202;27;19924;-82
2021/03/24 12:53:21;;;;;;;;;;;;;;;9.84;100.00;99078.38;5091428;28;20408;-81
2021/03/24 12:55:54;;;;;;;;;;;;;;;9.92;100.00;99082.69;5106899;27;19923;-82
2021/03/24 12:58:43;;;;;;;;;;;;;;;10.20;100.00;99079.53;5122275;27;20018;-82
2021/03/24 13:01:17;;;;;;;;;;;;;;;10.08;100.00;99077.31;5118929;27;19956;-82
2021/03/24 13:04:02;;;;;;;;;;;;;;;9.91;100.00;99073.50;5096436;28;19977;-82
2021/03/24 13:06:51;;;;;;;;;;;;;;;10.17;100.00;99080.34;5114298;28;20015;-82
2021/03/24 13:09:24;;;;;;;;;;;;;;;10.26;100.00;99067.47;5096126;28;19923;-82
2021/03/24 13:11:59;;;;;;;;;;;;;;;10.38;100.00;99060.50;5114271;28;19950;-82
2021/03/24 13:14:37;;;;;;;;;;;;;;;10.73;100.00;99059.94;5095980;28;19924;-82
2021/03/24 13:17:24;;;;;;;;;;;;;;;10.96;100.00;99059.94;5128775;27;19924;-82
2021/03/24 13:20:11;;;;;;;;;;;;;;;11.09;100.00;99057.34;5114295;28;19946;-82
2021/03/24 13:22:41;;;;;;;;;;;;;;;10.91;100.00;99060.41;5062875;28;20381;-82